sensor_id;sensor_type;location;lat;lon;timestamp;P1;durP1;ratioP1;P2;durP2;ratioP2
81056;SDS011;70563;50.084;14.468;2023-11-21T00:00:24;3.28;;;1.67;;
81056;SDS011;70563;50.084;14.468;2023-11-21T00:02:49;4.28;;;1.83;;
81056;SDS011;70563;50.084;14.468;2023-11-21T00:05:15;2.80;;;1.55;;
81056;SDS011;70563;50.084;14.468;2023-11-21T00:07:41;5.13;;;1.85;;
81056;SDS011;70563;50.084;14.468;2023-11-21T00:10:07;4.03;;;2.47;;
81056;SDS011;70563;50.084;14.468;2023-11-21T00:12:33;5.15;;;2.28;;
81056;SDS011;70563;50.084;14.468;2023-11-21T00:14:59;4.78;;;2.17;;
81056;SDS011;70563;50.084;14.468;2023-11-21T00:17:26;4.85;;;2.13;;
81056;SDS011;70563;50.084;14.468;2023-11-21T00:19:52;3.30;;;1.90;;
81056;SDS011;70563;50.084;14.468;2023-11-21T00:22:17;4.68;;;2.67;;
81056;SDS011;70563;50.084;14.468;2023-11-21T00:24:43;6.30;;;2.30;;
81056;SDS011;70563;50.084;14.468;2023-11-21T00:27:08;3.83;;;1.83;;
81056;SDS011;70563;50.084;14.468;2023-11-21T00:29:34;3.63;;;2.10;;
81056;SDS011;70563;50.084;14.468;2023-11-21T00:31:59;2.95;;;1.83;;
81056;SDS011;70563;50.084;14.468;2023-11-21T00:34:24;6.03;;;2.55;;
81056;SDS011;70563;50.084;14.468;2023-11-21T00:36:50;5.38;;;1.85;;
81056;SDS011;70563;50.084;14.468;2023-11-21T00:39:15;5.57;;;1.95;;
81056;SDS011;70563;50.084;14.468;2023-11-21T00:41:40;4.45;;;1.85;;
81056;SDS011;70563;50.084;14.468;2023-11-21T00:44:06;2.75;;;1.67;;
81056;SDS011;70563;50.084;14.468;2023-11-21T00:46:32;3.90;;;2.00;;
81056;SDS011;70563;50.084;14.468;2023-11-21T00:48:57;3.97;;;1.90;;
81056;SDS011;70563;50.084;14.468;2023-11-21T00:51:23;4.78;;;1.70;;
81056;SDS011;70563;50.084;14.468;2023-11-21T00:53:48;4.22;;;1.58;;
81056;SDS011;70563;50.084;14.468;2023-11-21T00:56:13;5.47;;;1.77;;
81056;SDS011;70563;50.084;14.468;2023-11-21T00:58:40;5.75;;;2.10;;
81056;SDS011;70563;50.084;14.468;2023-11-21T01:01:08;2.42;;;1.63;;
81056;SDS011;70563;50.084;14.468;2023-11-21T01:03:34;3.88;;;2.05;;
81056;SDS011;70563;50.084;14.468;2023-11-21T01:06:00;3.92;;;1.98;;
81056;SDS011;70563;50.084;14.468;2023-11-21T01:08:25;5.55;;;2.28;;
81056;SDS011;70563;50.084;14.468;2023-11-21T01:10:50;5.88;;;2.45;;
81056;SDS011;70563;50.084;14.468;2023-11-21T01:13:16;3.65;;;2.03;;
81056;SDS011;70563;50.084;14.468;2023-11-21T01:15:41;3.47;;;2.20;;
81056;SDS011;70563;50.084;14.468;2023-11-21T01:18:07;6.50;;;1.83;;
81056;SDS011;70563;50.084;14.468;2023-11-21T01:20:33;5.30;;;2.60;;
81056;SDS011;70563;50.084;14.468;2023-11-21T01:22:59;5.18;;;2.38;;
81056;SDS011;70563;50.084;14.468;2023-11-21T01:25:25;4.10;;;1.75;;
81056;SDS011;70563;50.084;14.468;2023-11-21T01:27:51;3.80;;;1.95;;
81056;SDS011;70563;50.084;14.468;2023-11-21T01:30:16;5.03;;;1.60;;
81056;SDS011;70563;50.084;14.468;2023-11-21T01:32:42;4.85;;;2.00;;
81056;SDS011;70563;50.084;14.468;2023-11-21T01:35:08;3.63;;;1.92;;
81056;SDS011;70563;50.084;14.468;2023-11-21T01:37:35;6.50;;;2.30;;
81056;SDS011;70563;50.084;14.468;2023-11-21T01:40:00;4.20;;;1.75;;
81056;SDS011;70563;50.084;14.468;2023-11-21T01:42:27;6.30;;;1.70;;
81056;SDS011;70563;50.084;14.468;2023-11-21T01:44:54;3.92;;;1.83;;
81056;SDS011;70563;50.084;14.468;2023-11-21T01:47:20;3.60;;;2.00;;
81056;SDS011;70563;50.084;14.468;2023-11-21T01:49:46;4.43;;;1.75;;
81056;SDS011;70563;50.084;14.468;2023-11-21T01:52:12;3.60;;;1.88;;
81056;SDS011;70563;50.084;14.468;2023-11-21T01:54:38;3.05;;;2.00;;
81056;SDS011;70563;50.084;14.468;2023-11-21T01:57:04;5.47;;;2.10;;
81056;SDS011;70563;50.084;14.468;2023-11-21T01:59:37;2.85;;;1.55;;
81056;SDS011;70563;50.084;14.468;2023-11-21T02:02:04;5.15;;;1.98;;
81056;SDS011;70563;50.084;14.468;2023-11-21T02:04:34;4.07;;;1.70;;
81056;SDS011;70563;50.084;14.468;2023-11-21T02:07:01;5.30;;;1.88;;
81056;SDS011;70563;50.084;14.468;2023-11-21T02:09:30;7.25;;;2.03;;
81056;SDS011;70563;50.084;14.468;2023-11-21T02:11:56;2.47;;;1.73;;
81056;SDS011;70563;50.084;14.468;2023-11-21T02:14:23;6.05;;;2.00;;
81056;SDS011;70563;50.084;14.468;2023-11-21T02:16:51;2.00;;;1.67;;
81056;SDS011;70563;50.084;14.468;2023-11-21T02:19:18;4.13;;;1.80;;
81056;SDS011;70563;50.084;14.468;2023-11-21T02:21:50;4.68;;;2.03;;
81056;SDS011;70563;50.084;14.468;2023-11-21T02:24:18;4.20;;;1.63;;
81056;SDS011;70563;50.084;14.468;2023-11-21T02:26:45;3.72;;;2.08;;
81056;SDS011;70563;50.084;14.468;2023-11-21T02:29:11;3.85;;;1.73;;
81056;SDS011;70563;50.084;14.468;2023-11-21T02:31:38;2.63;;;1.50;;
81056;SDS011;70563;50.084;14.468;2023-11-21T02:34:12;5.28;;;1.77;;
81056;SDS011;70563;50.084;14.468;2023-11-21T02:36:38;2.35;;;1.45;;
81056;SDS011;70563;50.084;14.468;2023-11-21T02:39:04;6.68;;;2.22;;
81056;SDS011;70563;50.084;14.468;2023-11-21T02:41:29;3.22;;;2.05;;
81056;SDS011;70563;50.084;14.468;2023-11-21T02:43:55;2.83;;;1.70;;
81056;SDS011;70563;50.084;14.468;2023-11-21T02:46:20;4.20;;;1.73;;
81056;SDS011;70563;50.084;14.468;2023-11-21T02:48:46;3.92;;;1.90;;
81056;SDS011;70563;50.084;14.468;2023-11-21T02:51:11;5.43;;;1.95;;
81056;SDS011;70563;50.084;14.468;2023-11-21T02:53:36;4.35;;;1.58;;
81056;SDS011;70563;50.084;14.468;2023-11-21T02:56:03;3.22;;;1.35;;
81056;SDS011;70563;50.084;14.468;2023-11-21T02:58:29;3.20;;;2.00;;
81056;SDS011;70563;50.084;14.468;2023-11-21T03:00:55;3.28;;;1.55;;
81056;SDS011;70563;50.084;14.468;2023-11-21T03:03:21;6.65;;;2.00;;
81056;SDS011;70563;50.084;14.468;2023-11-21T03:05:48;3.72;;;1.67;;
81056;SDS011;70563;50.084;14.468;2023-11-21T03:08:14;2.30;;;1.77;;
81056;SDS011;70563;50.084;14.468;2023-11-21T03:10:39;4.03;;;1.95;;
81056;SDS011;70563;50.084;14.468;2023-11-21T03:13:05;3.80;;;1.88;;
81056;SDS011;70563;50.084;14.468;2023-11-21T03:15:30;5.38;;;2.55;;
81056;SDS011;70563;50.084;14.468;2023-11-21T03:17:57;3.38;;;2.03;;
81056;SDS011;70563;50.084;14.468;2023-11-21T03:20:23;5.95;;;2.05;;
81056;SDS011;70563;50.084;14.468;2023-11-21T03:22:48;3.10;;;1.92;;
81056;SDS011;70563;50.084;14.468;2023-11-21T03:25:14;6.13;;;2.10;;
81056;SDS011;70563;50.084;14.468;2023-11-21T03:27:40;4.70;;;1.80;;
81056;SDS011;70563;50.084;14.468;2023-11-21T03:30:07;4.28;;;1.60;;
81056;SDS011;70563;50.084;14.468;2023-11-21T03:32:34;3.97;;;1.70;;
81056;SDS011;70563;50.084;14.468;2023-11-21T03:35:00;3.75;;;2.17;;
81056;SDS011;70563;50.084;14.468;2023-11-21T03:37:27;7.55;;;2.20;;
81056;SDS011;70563;50.084;14.468;2023-11-21T03:39:52;2.47;;;1.50;;
81056;SDS011;70563;50.084;14.468;2023-11-21T03:42:18;4.18;;;1.95;;
81056;SDS011;70563;50.084;14.468;2023-11-21T03:44:43;8.65;;;1.90;;
81056;SDS011;70563;50.084;14.468;2023-11-21T03:47:09;4.60;;;1.65;;
81056;SDS011;70563;50.084;14.468;2023-11-21T03:49:34;4.03;;;2.00;;
81056;SDS011;70563;50.084;14.468;2023-11-21T03:51:59;3.40;;;1.67;;
81056;SDS011;70563;50.084;14.468;2023-11-21T03:54:25;2.22;;;1.52;;
81056;SDS011;70563;50.084;14.468;2023-11-21T03:56:50;3.17;;;1.92;;
81056;SDS011;70563;50.084;14.468;2023-11-21T03:59:17;5.65;;;1.73;;
81056;SDS011;70563;50.084;14.468;2023-11-21T04:01:44;3.15;;;1.83;;
81056;SDS011;70563;50.084;14.468;2023-11-21T04:04:10;4.45;;;1.70;;
81056;SDS011;70563;50.084;14.468;2023-11-21T04:06:35;3.88;;;1.48;;
81056;SDS011;70563;50.084;14.468;2023-11-21T04:09:02;2.13;;;1.42;;
81056;SDS011;70563;50.084;14.468;2023-11-21T04:11:29;4.35;;;1.88;;
81056;SDS011;70563;50.084;14.468;2023-11-21T04:13:55;6.50;;;2.10;;
81056;SDS011;70563;50.084;14.468;2023-11-21T04:16:20;4.45;;;1.70;;
81056;SDS011;70563;50.084;14.468;2023-11-21T04:18:45;3.00;;;1.77;;
81056;SDS011;70563;50.084;14.468;2023-11-21T04:21:11;6.32;;;2.17;;
81056;SDS011;70563;50.084;14.468;2023-11-21T04:23:36;5.18;;;1.90;;
81056;SDS011;70563;50.084;14.468;2023-11-21T04:26:01;5.07;;;1.90;;
81056;SDS011;70563;50.084;14.468;2023-11-21T04:28:27;4.97;;;2.20;;
81056;SDS011;70563;50.084;14.468;2023-11-21T04:30:53;5.78;;;1.88;;
81056;SDS011;70563;50.084;14.468;2023-11-21T04:33:18;3.70;;;1.70;;
81056;SDS011;70563;50.084;14.468;2023-11-21T04:35:43;6.15;;;2.63;;
81056;SDS011;70563;50.084;14.468;2023-11-21T04:38:09;4.93;;;1.92;;
81056;SDS011;70563;50.084;14.468;2023-11-21T04:40:34;3.03;;;1.58;;
81056;SDS011;70563;50.084;14.468;2023-11-21T04:43:00;5.03;;;1.85;;
81056;SDS011;70563;50.084;14.468;2023-11-21T04:45:26;4.00;;;1.92;;
81056;SDS011;70563;50.084;14.468;2023-11-21T04:47:51;4.82;;;1.60;;
81056;SDS011;70563;50.084;14.468;2023-11-21T04:50:17;5.35;;;1.95;;
81056;SDS011;70563;50.084;14.468;2023-11-21T04:52:43;4.28;;;2.50;;
81056;SDS011;70563;50.084;14.468;2023-11-21T04:55:08;3.97;;;1.73;;
81056;SDS011;70563;50.084;14.468;2023-11-21T04:57:35;3.88;;;1.73;;
81056;SDS011;70563;50.084;14.468;2023-11-21T05:00:06;3.80;;;1.75;;
81056;SDS011;70563;50.084;14.468;2023-11-21T05:02:32;4.65;;;1.92;;
81056;SDS011;70563;50.084;14.468;2023-11-21T05:04:59;5.38;;;2.42;;
81056;SDS011;70563;50.084;14.468;2023-11-21T05:07:25;4.35;;;1.55;;
81056;SDS011;70563;50.084;14.468;2023-11-21T05:09:53;3.35;;;1.85;;
81056;SDS011;70563;50.084;14.468;2023-11-21T05:12:19;5.03;;;1.75;;
81056;SDS011;70563;50.084;14.468;2023-11-21T05:14:45;4.75;;;1.73;;
81056;SDS011;70563;50.084;14.468;2023-11-21T05:17:11;3.15;;;1.48;;
81056;SDS011;70563;50.084;14.468;2023-11-21T05:19:37;2.28;;;1.20;;
81056;SDS011;70563;50.084;14.468;2023-11-21T05:22:03;2.70;;;1.30;;
81056;SDS011;70563;50.084;14.468;2023-11-21T05:24:29;1.75;;;1.33;;
81056;SDS011;70563;50.084;14.468;2023-11-21T05:26:54;3.72;;;1.75;;
81056;SDS011;70563;50.084;14.468;2023-11-21T05:29:20;3.33;;;1.60;;
81056;SDS011;70563;50.084;14.468;2023-11-21T05:31:46;2.75;;;1.20;;
81056;SDS011;70563;50.084;14.468;2023-11-21T05:34:11;4.43;;;1.58;;
81056;SDS011;70563;50.084;14.468;2023-11-21T05:36:37;4.47;;;1.27;;
81056;SDS011;70563;50.084;14.468;2023-11-21T05:39:02;1.48;;;0.95;;
81056;SDS011;70563;50.084;14.468;2023-11-21T05:41:29;3.28;;;1.70;;
81056;SDS011;70563;50.084;14.468;2023-11-21T05:43:55;1.85;;;1.20;;
81056;SDS011;70563;50.084;14.468;2023-11-21T05:46:20;2.53;;;1.35;;
81056;SDS011;70563;50.084;14.468;2023-11-21T05:48:46;2.22;;;1.20;;
81056;SDS011;70563;50.084;14.468;2023-11-21T05:51:12;4.72;;;1.60;;
81056;SDS011;70563;50.084;14.468;2023-11-21T05:53:38;2.35;;;1.20;;
81056;SDS011;70563;50.084;14.468;2023-11-21T05:56:04;2.13;;;1.20;;
81056;SDS011;70563;50.084;14.468;2023-11-21T05:58:29;2.13;;;1.20;;
81056;SDS011;70563;50.084;14.468;2023-11-21T06:00:55;3.00;;;1.00;;
81056;SDS011;70563;50.084;14.468;2023-11-21T06:03:20;4.95;;;1.45;;
81056;SDS011;70563;50.084;14.468;2023-11-21T06:05:45;2.67;;;1.20;;
81056;SDS011;70563;50.084;14.468;2023-11-21T06:08:11;4.15;;;1.70;;
81056;SDS011;70563;50.084;14.468;2023-11-21T06:10:36;3.03;;;1.27;;
81056;SDS011;70563;50.084;14.468;2023-11-21T06:13:02;1.27;;;1.17;;
81056;SDS011;70563;50.084;14.468;2023-11-21T06:15:29;2.22;;;1.42;;
81056;SDS011;70563;50.084;14.468;2023-11-21T06:17:54;4.78;;;1.38;;
81056;SDS011;70563;50.084;14.468;2023-11-21T06:20:20;2.13;;;1.50;;
81056;SDS011;70563;50.084;14.468;2023-11-21T06:22:48;3.70;;;1.30;;
81056;SDS011;70563;50.084;14.468;2023-11-21T06:25:17;3.60;;;1.23;;
81056;SDS011;70563;50.084;14.468;2023-11-21T06:27:44;1.60;;;1.33;;
81056;SDS011;70563;50.084;14.468;2023-11-21T06:30:11;3.17;;;1.13;;
81056;SDS011;70563;50.084;14.468;2023-11-21T06:32:39;3.55;;;1.63;;
81056;SDS011;70563;50.084;14.468;2023-11-21T06:35:05;2.03;;;1.50;;
81056;SDS011;70563;50.084;14.468;2023-11-21T06:37:31;3.28;;;1.70;;
81056;SDS011;70563;50.084;14.468;2023-11-21T06:39:57;1.88;;;1.20;;
81056;SDS011;70563;50.084;14.468;2023-11-21T06:42:23;1.85;;;1.17;;
81056;SDS011;70563;50.084;14.468;2023-11-21T06:44:52;3.00;;;1.60;;
81056;SDS011;70563;50.084;14.468;2023-11-21T06:47:22;3.88;;;1.38;;
81056;SDS011;70563;50.084;14.468;2023-11-21T06:49:52;4.80;;;1.60;;
81056;SDS011;70563;50.084;14.468;2023-11-21T06:52:18;3.40;;;1.45;;
81056;SDS011;70563;50.084;14.468;2023-11-21T06:54:44;5.53;;;1.80;;
81056;SDS011;70563;50.084;14.468;2023-11-21T06:57:10;3.05;;;1.85;;
81056;SDS011;70563;50.084;14.468;2023-11-21T06:59:36;2.78;;;1.90;;
81056;SDS011;70563;50.084;14.468;2023-11-21T07:02:02;3.42;;;1.77;;
81056;SDS011;70563;50.084;14.468;2023-11-21T07:04:27;5.13;;;1.90;;
81056;SDS011;70563;50.084;14.468;2023-11-21T07:06:53;3.08;;;1.38;;
81056;SDS011;70563;50.084;14.468;2023-11-21T07:09:18;3.08;;;1.40;;
81056;SDS011;70563;50.084;14.468;2023-11-21T07:11:47;3.50;;;1.55;;
81056;SDS011;70563;50.084;14.468;2023-11-21T07:14:13;3.38;;;1.35;;
81056;SDS011;70563;50.084;14.468;2023-11-21T07:16:39;5.60;;;1.95;;
81056;SDS011;70563;50.084;14.468;2023-11-21T07:19:05;3.10;;;1.60;;
81056;SDS011;70563;50.084;14.468;2023-11-21T07:21:33;2.88;;;1.55;;
81056;SDS011;70563;50.084;14.468;2023-11-21T07:23:59;1.85;;;1.52;;
81056;SDS011;70563;50.084;14.468;2023-11-21T07:26:26;2.15;;;1.30;;
81056;SDS011;70563;50.084;14.468;2023-11-21T07:28:52;7.15;;;2.22;;
81056;SDS011;70563;50.084;14.468;2023-11-21T07:31:18;3.97;;;1.92;;
81056;SDS011;70563;50.084;14.468;2023-11-21T07:33:44;3.42;;;1.60;;
81056;SDS011;70563;50.084;14.468;2023-11-21T07:36:12;2.08;;;1.42;;
81056;SDS011;70563;50.084;14.468;2023-11-21T07:38:38;2.65;;;1.55;;
81056;SDS011;70563;50.084;14.468;2023-11-21T07:41:04;4.68;;;1.85;;
81056;SDS011;70563;50.084;14.468;2023-11-21T07:43:29;3.92;;;1.70;;
81056;SDS011;70563;50.084;14.468;2023-11-21T07:46:00;4.25;;;1.67;;
81056;SDS011;70563;50.084;14.468;2023-11-21T07:48:32;8.45;;;2.47;;
81056;SDS011;70563;50.084;14.468;2023-11-21T07:50:58;7.85;;;2.15;;
81056;SDS011;70563;50.084;14.468;2023-11-21T07:53:24;7.97;;;2.60;;
81056;SDS011;70563;50.084;14.468;2023-11-21T07:55:55;2.83;;;1.88;;
81056;SDS011;70563;50.084;14.468;2023-11-21T07:58:20;4.22;;;2.08;;
81056;SDS011;70563;50.084;14.468;2023-11-21T08:00:46;4.07;;;2.10;;
81056;SDS011;70563;50.084;14.468;2023-11-21T08:03:13;4.88;;;2.10;;
81056;SDS011;70563;50.084;14.468;2023-11-21T08:05:39;6.07;;;2.80;;
81056;SDS011;70563;50.084;14.468;2023-11-21T08:08:04;4.57;;;2.30;;
81056;SDS011;70563;50.084;14.468;2023-11-21T08:10:30;7.15;;;3.30;;
81056;SDS011;70563;50.084;14.468;2023-11-21T08:12:55;2.83;;;1.77;;
81056;SDS011;70563;50.084;14.468;2023-11-21T08:15:21;2.83;;;1.83;;
81056;SDS011;70563;50.084;14.468;2023-11-21T08:17:46;3.97;;;2.00;;
81056;SDS011;70563;50.084;14.468;2023-11-21T08:20:13;3.13;;;2.00;;
81056;SDS011;70563;50.084;14.468;2023-11-21T08:22:41;7.75;;;2.45;;
81056;SDS011;70563;50.084;14.468;2023-11-21T08:25:07;6.40;;;3.55;;
81056;SDS011;70563;50.084;14.468;2023-11-21T08:27:33;5.63;;;1.90;;
81056;SDS011;70563;50.084;14.468;2023-11-21T08:29:59;3.88;;;2.15;;
81056;SDS011;70563;50.084;14.468;2023-11-21T08:32:25;3.13;;;1.67;;
81056;SDS011;70563;50.084;14.468;2023-11-21T08:34:50;5.18;;;1.65;;
81056;SDS011;70563;50.084;14.468;2023-11-21T08:37:16;3.97;;;1.60;;
81056;SDS011;70563;50.084;14.468;2023-11-21T08:39:43;5.78;;;1.60;;
81056;SDS011;70563;50.084;14.468;2023-11-21T08:42:09;5.35;;;1.90;;
81056;SDS011;70563;50.084;14.468;2023-11-21T08:44:34;4.28;;;1.85;;
81056;SDS011;70563;50.084;14.468;2023-11-21T08:47:00;5.18;;;2.25;;
81056;SDS011;70563;50.084;14.468;2023-11-21T08:49:25;3.28;;;1.70;;
81056;SDS011;70563;50.084;14.468;2023-11-21T08:51:52;4.03;;;2.08;;
81056;SDS011;70563;50.084;14.468;2023-11-21T08:54:20;8.68;;;2.10;;
81056;SDS011;70563;50.084;14.468;2023-11-21T08:56:46;3.28;;;1.92;;
81056;SDS011;70563;50.084;14.468;2023-11-21T08:59:11;2.75;;;1.40;;
81056;SDS011;70563;50.084;14.468;2023-11-21T09:01:40;4.50;;;1.95;;
81056;SDS011;70563;50.084;14.468;2023-11-21T09:04:05;6.63;;;2.28;;
81056;SDS011;70563;50.084;14.468;2023-11-21T09:06:31;2.92;;;2.00;;
81056;SDS011;70563;50.084;14.468;2023-11-21T09:08:56;5.38;;;2.08;;
81056;SDS011;70563;50.084;14.468;2023-11-21T09:11:23;3.53;;;2.17;;
81056;SDS011;70563;50.084;14.468;2023-11-21T09:13:50;4.30;;;2.05;;
81056;SDS011;70563;50.084;14.468;2023-11-21T09:16:16;3.78;;;1.85;;
81056;SDS011;70563;50.084;14.468;2023-11-21T09:18:42;7.05;;;2.63;;
81056;SDS011;70563;50.084;14.468;2023-11-21T09:21:07;5.93;;;2.08;;
81056;SDS011;70563;50.084;14.468;2023-11-21T09:23:33;4.18;;;2.17;;
81056;SDS011;70563;50.084;14.468;2023-11-21T09:25:59;4.43;;;2.10;;
81056;SDS011;70563;50.084;14.468;2023-11-21T09:28:26;5.63;;;2.63;;
81056;SDS011;70563;50.084;14.468;2023-11-21T09:30:52;4.88;;;2.40;;
81056;SDS011;70563;50.084;14.468;2023-11-21T09:33:20;4.25;;;2.05;;
81056;SDS011;70563;50.084;14.468;2023-11-21T09:35:47;5.10;;;3.00;;
81056;SDS011;70563;50.084;14.468;2023-11-21T09:38:13;5.53;;;2.40;;
81056;SDS011;70563;50.084;14.468;2023-11-21T09:40:39;4.57;;;2.75;;
81056;SDS011;70563;50.084;14.468;2023-11-21T09:43:15;4.47;;;2.50;;
81056;SDS011;70563;50.084;14.468;2023-11-21T09:45:45;4.13;;;2.28;;
81056;SDS011;70563;50.084;14.468;2023-11-21T09:48:19;5.13;;;2.80;;
81056;SDS011;70563;50.084;14.468;2023-11-21T09:50:45;5.35;;;2.28;;
81056;SDS011;70563;50.084;14.468;2023-11-21T09:53:19;5.95;;;2.17;;
81056;SDS011;70563;50.084;14.468;2023-11-21T09:55:47;5.55;;;2.60;;
81056;SDS011;70563;50.084;14.468;2023-11-21T09:58:15;8.32;;;2.80;;
81056;SDS011;70563;50.084;14.468;2023-11-21T10:00:41;4.95;;;2.45;;
81056;SDS011;70563;50.084;14.468;2023-11-21T10:03:08;5.18;;;2.33;;
81056;SDS011;70563;50.084;14.468;2023-11-21T10:05:34;4.78;;;2.40;;
81056;SDS011;70563;50.084;14.468;2023-11-21T10:08:00;7.68;;;2.85;;
81056;SDS011;70563;50.084;14.468;2023-11-21T10:10:26;9.45;;;2.50;;
81056;SDS011;70563;50.084;14.468;2023-11-21T10:12:54;4.68;;;2.50;;
81056;SDS011;70563;50.084;14.468;2023-11-21T10:15:21;3.67;;;2.25;;
81056;SDS011;70563;50.084;14.468;2023-11-21T10:17:48;5.43;;;3.15;;
81056;SDS011;70563;50.084;14.468;2023-11-21T10:20:15;6.47;;;2.60;;
81056;SDS011;70563;50.084;14.468;2023-11-21T10:22:41;4.97;;;2.05;;
81056;SDS011;70563;50.084;14.468;2023-11-21T10:25:10;4.45;;;2.67;;
81056;SDS011;70563;50.084;14.468;2023-11-21T10:27:36;3.95;;;2.45;;
81056;SDS011;70563;50.084;14.468;2023-11-21T10:30:04;7.57;;;2.35;;
81056;SDS011;70563;50.084;14.468;2023-11-21T10:32:30;5.72;;;2.40;;
81056;SDS011;70563;50.084;14.468;2023-11-21T10:34:57;5.97;;;2.90;;
81056;SDS011;70563;50.084;14.468;2023-11-21T10:37:25;6.30;;;2.08;;
81056;SDS011;70563;50.084;14.468;2023-11-21T10:39:56;5.18;;;2.33;;
81056;SDS011;70563;50.084;14.468;2023-11-21T10:42:23;11.65;;;3.13;;
81056;SDS011;70563;50.084;14.468;2023-11-21T10:44:49;9.50;;;3.10;;
81056;SDS011;70563;50.084;14.468;2023-11-21T10:47:15;3.70;;;2.33;;
81056;SDS011;70563;50.084;14.468;2023-11-21T10:49:43;3.08;;;2.40;;
81056;SDS011;70563;50.084;14.468;2023-11-21T10:52:09;3.50;;;2.28;;
81056;SDS011;70563;50.084;14.468;2023-11-21T10:54:42;3.72;;;2.05;;
81056;SDS011;70563;50.084;14.468;2023-11-21T10:57:07;3.90;;;1.73;;
81056;SDS011;70563;50.084;14.468;2023-11-21T10:59:33;4.07;;;2.25;;
81056;SDS011;70563;50.084;14.468;2023-11-21T11:01:59;3.45;;;1.67;;
81056;SDS011;70563;50.084;14.468;2023-11-21T11:04:28;3.65;;;1.63;;
81056;SDS011;70563;50.084;14.468;2023-11-21T11:06:57;5.85;;;2.25;;
81056;SDS011;70563;50.084;14.468;2023-11-21T11:09:26;6.40;;;2.17;;
81056;SDS011;70563;50.084;14.468;2023-11-21T11:11:52;8.13;;;1.92;;
81056;SDS011;70563;50.084;14.468;2023-11-21T11:14:19;4.20;;;1.70;;
81056;SDS011;70563;50.084;14.468;2023-11-21T11:16:45;7.00;;;2.67;;
81056;SDS011;70563;50.084;14.468;2023-11-21T11:19:10;4.80;;;2.38;;
81056;SDS011;70563;50.084;14.468;2023-11-21T11:27:20;6.15;;;1.90;;
81056;SDS011;70563;50.084;14.468;2023-11-21T11:37:18;2.83;;;1.55;;
81056;SDS011;70563;50.084;14.468;2023-11-21T11:39:44;4.50;;;1.75;;
81056;SDS011;70563;50.084;14.468;2023-11-21T11:42:14;4.45;;;1.85;;
81056;SDS011;70563;50.084;14.468;2023-11-21T11:47:13;2.83;;;1.80;;
81056;SDS011;70563;50.084;14.468;2023-11-21T11:52:33;2.78;;;1.92;;
81056;SDS011;70563;50.084;14.468;2023-11-21T11:55:00;3.50;;;2.13;;
81056;SDS011;70563;50.084;14.468;2023-11-21T11:57:26;6.90;;;2.00;;
81056;SDS011;70563;50.084;14.468;2023-11-21T12:02:39;4.43;;;1.95;;
81056;SDS011;70563;50.084;14.468;2023-11-21T12:05:09;4.63;;;2.40;;
81056;SDS011;70563;50.084;14.468;2023-11-21T12:12:49;3.10;;;1.65;;
81056;SDS011;70563;50.084;14.468;2023-11-21T12:15:35;3.30;;;1.63;;
81056;SDS011;70563;50.084;14.468;2023-11-21T12:18:03;1.70;;;1.42;;
81056;SDS011;70563;50.084;14.468;2023-11-21T12:20:30;3.72;;;2.38;;
81056;SDS011;70563;50.084;14.468;2023-11-21T12:22:56;7.38;;;2.13;;
81056;SDS011;70563;50.084;14.468;2023-11-21T12:25:26;2.10;;;1.63;;
81056;SDS011;70563;50.084;14.468;2023-11-21T12:28:00;4.40;;;2.08;;
81056;SDS011;70563;50.084;14.468;2023-11-21T12:30:31;4.38;;;2.20;;
81056;SDS011;70563;50.084;14.468;2023-11-21T12:33:03;4.70;;;2.90;;
81056;SDS011;70563;50.084;14.468;2023-11-21T12:35:33;7.00;;;2.40;;
81056;SDS011;70563;50.084;14.468;2023-11-21T12:37:59;7.70;;;2.25;;
81056;SDS011;70563;50.084;14.468;2023-11-21T12:40:29;3.95;;;2.58;;
81056;SDS011;70563;50.084;14.468;2023-11-21T12:42:58;4.43;;;2.35;;
81056;SDS011;70563;50.084;14.468;2023-11-21T12:45:26;5.63;;;2.33;;
81056;SDS011;70563;50.084;14.468;2023-11-21T12:48:03;6.30;;;2.58;;
81056;SDS011;70563;50.084;14.468;2023-11-21T12:50:33;4.95;;;2.53;;
81056;SDS011;70563;50.084;14.468;2023-11-21T12:53:05;3.30;;;2.45;;
81056;SDS011;70563;50.084;14.468;2023-11-21T12:55:34;5.75;;;2.90;;
81056;SDS011;70563;50.084;14.468;2023-11-21T12:58:03;3.78;;;2.72;;
81056;SDS011;70563;50.084;14.468;2023-11-21T13:00:36;5.45;;;2.70;;
81056;SDS011;70563;50.084;14.468;2023-11-21T13:03:04;5.95;;;2.58;;
81056;SDS011;70563;50.084;14.468;2023-11-21T13:05:35;4.65;;;2.58;;
81056;SDS011;70563;50.084;14.468;2023-11-21T13:08:08;4.80;;;2.67;;
81056;SDS011;70563;50.084;14.468;2023-11-21T13:10:35;4.97;;;3.00;;
81056;SDS011;70563;50.084;14.468;2023-11-21T13:13:05;4.03;;;2.45;;
81056;SDS011;70563;50.084;14.468;2023-11-21T13:15:35;6.68;;;2.80;;
81056;SDS011;70563;50.084;14.468;2023-11-21T13:18:05;6.65;;;2.72;;
81056;SDS011;70563;50.084;14.468;2023-11-21T13:20:32;7.75;;;3.10;;
81056;SDS011;70563;50.084;14.468;2023-11-21T13:22:57;4.15;;;2.33;;
81056;SDS011;70563;50.084;14.468;2023-11-21T13:25:24;4.78;;;2.80;;
81056;SDS011;70563;50.084;14.468;2023-11-21T13:27:53;5.72;;;3.28;;
81056;SDS011;70563;50.084;14.468;2023-11-21T13:30:22;5.20;;;2.70;;
81056;SDS011;70563;50.084;14.468;2023-11-21T13:32:55;6.18;;;2.53;;
81056;SDS011;70563;50.084;14.468;2023-11-21T13:35:29;9.15;;;3.03;;
81056;SDS011;70563;50.084;14.468;2023-11-21T13:38:18;4.70;;;3.10;;
81056;SDS011;70563;50.084;14.468;2023-11-21T13:40:51;8.88;;;3.50;;
81056;SDS011;70563;50.084;14.468;2023-11-21T13:43:24;5.15;;;2.92;;
81056;SDS011;70563;50.084;14.468;2023-11-21T13:45:51;4.88;;;3.58;;
81056;SDS011;70563;50.084;14.468;2023-11-21T13:48:26;7.68;;;3.78;;
81056;SDS011;70563;50.084;14.468;2023-11-21T13:50:59;6.95;;;3.42;;
81056;SDS011;70563;50.084;14.468;2023-11-21T13:53:30;4.97;;;3.28;;
81056;SDS011;70563;50.084;14.468;2023-11-21T13:55:56;7.72;;;3.53;;
81056;SDS011;70563;50.084;14.468;2023-11-21T13:58:25;9.80;;;4.47;;
81056;SDS011;70563;50.084;14.468;2023-11-21T14:01:06;6.10;;;3.88;;
81056;SDS011;70563;50.084;14.468;2023-11-21T14:03:41;11.68;;;4.28;;
81056;SDS011;70563;50.084;14.468;2023-11-21T14:06:16;7.00;;;3.97;;
81056;SDS011;70563;50.084;14.468;2023-11-21T14:08:49;7.85;;;3.92;;
81056;SDS011;70563;50.084;14.468;2023-11-21T14:11:15;7.93;;;4.40;;
81056;SDS011;70563;50.084;14.468;2023-11-21T14:13:43;7.90;;;3.67;;
81056;SDS011;70563;50.084;14.468;2023-11-21T14:16:12;7.47;;;4.00;;
81056;SDS011;70563;50.084;14.468;2023-11-21T14:18:39;5.97;;;4.03;;
81056;SDS011;70563;50.084;14.468;2023-11-21T14:21:16;9.98;;;4.75;;
81056;SDS011;70563;50.084;14.468;2023-11-21T14:23:42;9.68;;;4.30;;
81056;SDS011;70563;50.084;14.468;2023-11-21T14:26:08;10.20;;;4.38;;
81056;SDS011;70563;50.084;14.468;2023-11-21T14:28:33;7.57;;;4.40;;
81056;SDS011;70563;50.084;14.468;2023-11-21T14:31:00;6.57;;;4.00;;
81056;SDS011;70563;50.084;14.468;2023-11-21T14:33:26;8.05;;;3.95;;
81056;SDS011;70563;50.084;14.468;2023-11-21T14:35:52;7.32;;;4.78;;
81056;SDS011;70563;50.084;14.468;2023-11-21T14:38:17;6.05;;;3.50;;
81056;SDS011;70563;50.084;14.468;2023-11-21T14:40:43;5.57;;;4.13;;
81056;SDS011;70563;50.084;14.468;2023-11-21T14:43:09;6.07;;;3.80;;
81056;SDS011;70563;50.084;14.468;2023-11-21T14:45:35;8.85;;;4.28;;
81056;SDS011;70563;50.084;14.468;2023-11-21T14:48:00;7.63;;;3.88;;
81056;SDS011;70563;50.084;14.468;2023-11-21T14:50:40;5.38;;;3.85;;
81056;SDS011;70563;50.084;14.468;2023-11-21T14:53:09;9.68;;;5.30;;
81056;SDS011;70563;50.084;14.468;2023-11-21T14:55:37;8.57;;;3.97;;
81056;SDS011;70563;50.084;14.468;2023-11-21T14:58:14;9.43;;;5.20;;